sensor_id;sensor_type;location;lat;lon;timestamp;temperature;humidity
4314;DHT22;2170;48.794;9.182;2024-01-30T00:01:17;4.30;99.90
4314;DHT22;2170;48.794;9.182;2024-01-30T00:03:47;4.20;99.90
4314;DHT22;2170;48.794;9.182;2024-01-30T00:06:22;4.20;99.90
4314;DHT22;2170;48.794;9.182;2024-01-30T00:08:52;3.90;99.90
4314;DHT22;2170;48.794;9.182;2024-01-30T00:11:27;4.20;99.90
4314;DHT22;2170;48.794;9.182;2024-01-30T00:13:55;3.90;99.90
4314;DHT22;2170;48.794;9.182;2024-01-30T00:16:24;4.40;99.90
4314;DHT22;2170;48.794;9.182;2024-01-30T00:18:57;4.10;99.90
4314;DHT22;2170;48.794;9.182;2024-01-30T00:21:28;4.10;99.90
4314;DHT22;2170;48.794;9.182;2024-01-30T00:24:00;4.00;99.90
4314;DHT22;2170;48.794;9.182;2024-01-30T00:26:29;4.10;99.90
4314;DHT22;2170;48.794;9.182;2024-01-30T00:29:00;4.10;99.90
4314;DHT22;2170;48.794;9.182;2024-01-30T00:31:31;4.00;99.90
4314;DHT22;2170;48.794;9.182;2024-01-30T00:34:00;4.00;99.90
4314;DHT22;2170;48.794;9.182;2024-01-30T00:39:03;4.00;99.90
4314;DHT22;2170;48.794;9.182;2024-01-30T00:41:36;4.00;99.90
4314;DHT22;2170;48.794;9.182;2024-01-30T00:44:12;4.00;99.90
4314;DHT22;2170;48.794;9.182;2024-01-30T00:46:39;4.00;99.90
4314;DHT22;2170;48.794;9.182;2024-01-30T00:49:12;4.00;99.90
4314;DHT22;2170;48.794;9.182;2024-01-30T00:51:40;3.60;99.90
4314;DHT22;2170;48.794;9.182;2024-01-30T00:54:11;4.20;99.90
4314;DHT22;2170;48.794;9.182;2024-01-30T00:56:38;3.90;99.90
4314;DHT22;2170;48.794;9.182;2024-01-30T00:59:06;3.90;99.90
4314;DHT22;2170;48.794;9.182;2024-01-30T01:01:34;3.90;99.90
4314;DHT22;2170;48.794;9.182;2024-01-30T01:04:04;3.80;99.90
4314;DHT22;2170;48.794;9.182;2024-01-30T01:06:33;3.80;99.90
4314;DHT22;2170;48.794;9.182;2024-01-30T01:09:01;3.80;99.90
4314;DHT22;2170;48.794;9.182;2024-01-30T01:11:32;3.80;99.90
4314;DHT22;2170;48.794;9.182;2024-01-30T01:13:59;3.80;99.90
4314;DHT22;2170;48.794;9.182;2024-01-30T01:16:30;3.80;99.90
4314;DHT22;2170;48.794;9.182;2024-01-30T01:18:58;3.80;99.90
4314;DHT22;2170;48.794;9.182;2024-01-30T01:21:29;3.90;99.90
4314;DHT22;2170;48.794;9.182;2024-01-30T01:23:57;3.50;99.90
4314;DHT22;2170;48.794;9.182;2024-01-30T01:26:25;3.80;99.90
4314;DHT22;2170;48.794;9.182;2024-01-30T01:29:00;3.80;99.90
4314;DHT22;2170;48.794;9.182;2024-01-30T01:31:30;3.80;99.90
4314;DHT22;2170;48.794;9.182;2024-01-30T01:33:58;3.80;99.90
4314;DHT22;2170;48.794;9.182;2024-01-30T01:36:25;3.70;99.90
4314;DHT22;2170;48.794;9.182;2024-01-30T01:38:53;3.40;99.90
4314;DHT22;2170;48.794;9.182;2024-01-30T01:41:21;3.70;99.90
4314;DHT22;2170;48.794;9.182;2024-01-30T01:43:49;3.70;99.90
4314;DHT22;2170;48.794;9.182;2024-01-30T01:46:18;3.70;99.90
4314;DHT22;2170;48.794;9.182;2024-01-30T01:48:54;3.30;99.90
4314;DHT22;2170;48.794;9.182;2024-01-30T01:51:23;3.70;99.90
4314;DHT22;2170;48.794;9.182;2024-01-30T01:53:55;3.60;99.90
4314;DHT22;2170;48.794;9.182;2024-01-30T01:56:27;3.70;99.90
4314;DHT22;2170;48.794;9.182;2024-01-30T01:59:03;3.60;99.90
4314;DHT22;2170;48.794;9.182;2024-01-30T02:01:34;3.60;99.90
4314;DHT22;2170;48.794;9.182;2024-01-30T02:04:06;3.60;99.90
4314;DHT22;2170;48.794;9.182;2024-01-30T02:06:37;3.60;99.90
4314;DHT22;2170;48.794;9.182;2024-01-30T02:09:06;3.60;99.90
4314;DHT22;2170;48.794;9.182;2024-01-30T02:11:35;3.80;99.90
4314;DHT22;2170;48.794;9.182;2024-01-30T02:14:03;3.50;99.90
4314;DHT22;2170;48.794;9.182;2024-01-30T02:16:31;3.10;99.90
4314;DHT22;2170;48.794;9.182;2024-01-30T02:19:00;3.30;99.90
4314;DHT22;2170;48.794;9.182;2024-01-30T02:21:29;3.30;99.90
4314;DHT22;2170;48.794;9.182;2024-01-30T02:23:58;3.30;99.90
4314;DHT22;2170;48.794;9.182;2024-01-30T02:26:35;3.30;99.90
4314;DHT22;2170;48.794;9.182;2024-01-30T02:29:05;3.10;99.90
4314;DHT22;2170;48.794;9.182;2024-01-30T02:31:36;3.20;99.90
4314;DHT22;2170;48.794;9.182;2024-01-30T02:34:04;3.40;99.90
4314;DHT22;2170;48.794;9.182;2024-01-30T02:36:33;3.20;99.90
4314;DHT22;2170;48.794;9.182;2024-01-30T02:39:02;3.30;99.90
4314;DHT22;2170;48.794;9.182;2024-01-30T02:41:30;3.20;99.90
4314;DHT22;2170;48.794;9.182;2024-01-30T02:43:57;3.20;99.90
4314;DHT22;2170;48.794;9.182;2024-01-30T02:46:28;3.30;99.90
4314;DHT22;2170;48.794;9.182;2024-01-30T02:48:56;3.30;99.90
4314;DHT22;2170;48.794;9.182;2024-01-30T02:51:24;3.10;99.90
4314;DHT22;2170;48.794;9.182;2024-01-30T02:53:53;3.20;99.90
4314;DHT22;2170;48.794;9.182;2024-01-30T02:56:23;3.20;99.90
4314;DHT22;2170;48.794;9.182;2024-01-30T02:58:53;3.20;99.90
4314;DHT22;2170;48.794;9.182;2024-01-30T03:01:20;3.20;99.90
4314;DHT22;2170;48.794;9.182;2024-01-30T03:03:50;3.20;99.90
4314;DHT22;2170;48.794;9.182;2024-01-30T03:06:19;3.10;99.90
4314;DHT22;2170;48.794;9.182;2024-01-30T03:08:48;3.10;99.90
4314;DHT22;2170;48.794;9.182;2024-01-30T03:11:17;3.40;99.90
4314;DHT22;2170;48.794;9.182;2024-01-30T03:13:45;3.10;99.90
4314;DHT22;2170;48.794;9.182;2024-01-30T03:16:13;3.40;99.90
4314;DHT22;2170;48.794;9.182;2024-01-30T03:18:40;3.10;99.90
4314;DHT22;2170;48.794;9.182;2024-01-30T03:21:08;3.10;99.90
4314;DHT22;2170;48.794;9.182;2024-01-30T03:23:36;3.00;99.90
4314;DHT22;2170;48.794;9.182;2024-01-30T03:26:04;3.00;99.90
4314;DHT22;2170;48.794;9.182;2024-01-30T03:28:34;3.00;99.90
4314;DHT22;2170;48.794;9.182;2024-01-30T03:31:04;3.00;99.90
4314;DHT22;2170;48.794;9.182;2024-01-30T03:33:32;3.00;99.90
4314;DHT22;2170;48.794;9.182;2024-01-30T03:36:04;3.00;99.90
4314;DHT22;2170;48.794;9.182;2024-01-30T03:38:31;2.50;99.90
4314;DHT22;2170;48.794;9.182;2024-01-30T03:41:02;2.60;99.90
4314;DHT22;2170;48.794;9.182;2024-01-30T03:43:30;2.90;99.90
4314;DHT22;2170;48.794;9.182;2024-01-30T03:45:59;2.80;99.90
4314;DHT22;2170;48.794;9.182;2024-01-30T03:48:29;2.90;99.90
4314;DHT22;2170;48.794;9.182;2024-01-30T03:50:58;2.90;99.90
4314;DHT22;2170;48.794;9.182;2024-01-30T03:53:29;2.80;99.90
4314;DHT22;2170;48.794;9.182;2024-01-30T03:55:57;2.80;99.90
4314;DHT22;2170;48.794;9.182;2024-01-30T03:58:25;2.80;99.90
4314;DHT22;2170;48.794;9.182;2024-01-30T04:00:53;2.80;99.90
4314;DHT22;2170;48.794;9.182;2024-01-30T04:03:22;2.80;99.90
4314;DHT22;2170;48.794;9.182;2024-01-30T04:05:52;2.80;99.90
4314;DHT22;2170;48.794;9.182;2024-01-30T04:08:25;2.80;99.90
4314;DHT22;2170;48.794;9.182;2024-01-30T04:14:18;2.80;99.90
4314;DHT22;2170;48.794;9.182;2024-01-30T04:16:51;2.90;99.90
4314;DHT22;2170;48.794;9.182;2024-01-30T04:19:22;2.80;99.90
4314;DHT22;2170;48.794;9.182;2024-01-30T04:21:50;2.80;99.90
4314;DHT22;2170;48.794;9.182;2024-01-30T04:24:21;2.70;99.90
4314;DHT22;2170;48.794;9.182;2024-01-30T04:26:49;2.40;99.90
4314;DHT22;2170;48.794;9.182;2024-01-30T04:29:18;2.70;99.90
4314;DHT22;2170;48.794;9.182;2024-01-30T04:31:49;2.70;99.90
4314;DHT22;2170;48.794;9.182;2024-01-30T04:34:17;2.70;99.90
4314;DHT22;2170;48.794;9.182;2024-01-30T04:36:47;2.60;99.90
4314;DHT22;2170;48.794;9.182;2024-01-30T04:39:17;2.70;99.90
4314;DHT22;2170;48.794;9.182;2024-01-30T04:41:45;2.60;99.90
4314;DHT22;2170;48.794;9.182;2024-01-30T04:44:13;2.60;99.90
4314;DHT22;2170;48.794;9.182;2024-01-30T04:46:40;2.70;99.90
4314;DHT22;2170;48.794;9.182;2024-01-30T04:49:08;2.90;99.90
4314;DHT22;2170;48.794;9.182;2024-01-30T04:51:36;2.70;99.90
4314;DHT22;2170;48.794;9.182;2024-01-30T04:54:08;2.90;99.90
4314;DHT22;2170;48.794;9.182;2024-01-30T04:56:39;2.60;99.90
4314;DHT22;2170;48.794;9.182;2024-01-30T04:59:16;2.60;99.90
4314;DHT22;2170;48.794;9.182;2024-01-30T05:01:47;2.60;99.90
4314;DHT22;2170;48.794;9.182;2024-01-30T05:04:15;2.60;99.90
4314;DHT22;2170;48.794;9.182;2024-01-30T05:06:43;2.20;99.90
4314;DHT22;2170;48.794;9.182;2024-01-30T05:09:16;2.50;99.90
4314;DHT22;2170;48.794;9.182;2024-01-30T05:11:47;2.50;99.90
4314;DHT22;2170;48.794;9.182;2024-01-30T05:14:15;2.50;99.90
4314;DHT22;2170;48.794;9.182;2024-01-30T05:16:46;2.50;99.90
4314;DHT22;2170;48.794;9.182;2024-01-30T05:19:14;2.60;99.90
4314;DHT22;2170;48.794;9.182;2024-01-30T05:21:48;2.50;99.90
4314;DHT22;2170;48.794;9.182;2024-01-30T05:24:22;2.50;99.90
4314;DHT22;2170;48.794;9.182;2024-01-30T05:26:50;2.50;99.90
4314;DHT22;2170;48.794;9.182;2024-01-30T05:29:17;2.50;99.90
4314;DHT22;2170;48.794;9.182;2024-01-30T05:31:47;2.50;99.90
4314;DHT22;2170;48.794;9.182;2024-01-30T05:34:24;2.40;99.90
4314;DHT22;2170;48.794;9.182;2024-01-30T05:36:55;2.40;99.90
4314;DHT22;2170;48.794;9.182;2024-01-30T05:39:25;2.40;99.90
4314;DHT22;2170;48.794;9.182;2024-01-30T05:41:54;2.40;99.90
4314;DHT22;2170;48.794;9.182;2024-01-30T05:44:30;2.10;99.90
4314;DHT22;2170;48.794;9.182;2024-01-30T05:47:01;2.40;99.90
4314;DHT22;2170;48.794;9.182;2024-01-30T05:49:37;2.40;99.90
4314;DHT22;2170;48.794;9.182;2024-01-30T05:52:08;2.40;99.90
4314;DHT22;2170;48.794;9.182;2024-01-30T05:54:43;2.40;99.90
4314;DHT22;2170;48.794;9.182;2024-01-30T05:57:12;2.40;99.90
4314;DHT22;2170;48.794;9.182;2024-01-30T05:59:46;2.40;99.90
4314;DHT22;2170;48.794;9.182;2024-01-30T06:02:18;2.20;99.90
4314;DHT22;2170;48.794;9.182;2024-01-30T06:04:46;2.40;99.90
4314;DHT22;2170;48.794;9.182;2024-01-30T06:07:14;2.40;99.90
4314;DHT22;2170;48.794;9.182;2024-01-30T06:09:44;2.40;99.90
4314;DHT22;2170;48.794;9.182;2024-01-30T06:12:12;2.40;99.90
4314;DHT22;2170;48.794;9.182;2024-01-30T06:14:42;2.40;99.90
4314;DHT22;2170;48.794;9.182;2024-01-30T06:17:12;2.40;99.90
4314;DHT22;2170;48.794;9.182;2024-01-30T06:19:40;2.40;99.90
4314;DHT22;2170;48.794;9.182;2024-01-30T06:22:07;2.10;99.90
4314;DHT22;2170;48.794;9.182;2024-01-30T06:24:37;2.40;99.90
4314;DHT22;2170;48.794;9.182;2024-01-30T06:27:09;2.40;99.90
4314;DHT22;2170;48.794;9.182;2024-01-30T06:29:40;2.40;99.90
4314;DHT22;2170;48.794;9.182;2024-01-30T06:32:08;2.30;99.90
4314;DHT22;2170;48.794;9.182;2024-01-30T06:34:38;2.40;99.90
4314;DHT22;2170;48.794;9.182;2024-01-30T06:37:10;2.40;99.90
4314;DHT22;2170;48.794;9.182;2024-01-30T06:39:46;2.50;99.90
4314;DHT22;2170;48.794;9.182;2024-01-30T06:42:23;2.70;99.90
4314;DHT22;2170;48.794;9.182;2024-01-30T06:44:53;2.80;99.90
4314;DHT22;2170;48.794;9.182;2024-01-30T06:47:23;2.80;99.90
4314;DHT22;2170;48.794;9.182;2024-01-30T06:49:58;2.90;99.90
4314;DHT22;2170;48.794;9.182;2024-01-30T06:52:37;2.90;99.90
4314;DHT22;2170;48.794;9.182;2024-01-30T06:55:06;2.80;99.90
4314;DHT22;2170;48.794;9.182;2024-01-30T06:57:41;2.70;99.90
4314;DHT22;2170;48.794;9.182;2024-01-30T07:00:11;2.70;99.90
4314;DHT22;2170;48.794;9.182;2024-01-30T07:02:49;2.60;99.90
4314;DHT22;2170;48.794;9.182;2024-01-30T07:05:18;2.60;99.90
4314;DHT22;2170;48.794;9.182;2024-01-30T07:07:50;2.60;99.90
4314;DHT22;2170;48.794;9.182;2024-01-30T07:10:19;2.60;99.90
4314;DHT22;2170;48.794;9.182;2024-01-30T07:12:53;2.60;99.90
4314;DHT22;2170;48.794;9.182;2024-01-30T07:15:27;2.60;99.90
4314;DHT22;2170;48.794;9.182;2024-01-30T07:18:01;2.50;99.90
4314;DHT22;2170;48.794;9.182;2024-01-30T07:20:36;2.60;99.90
4314;DHT22;2170;48.794;9.182;2024-01-30T07:23:08;2.60;99.90
4314;DHT22;2170;48.794;9.182;2024-01-30T07:25:41;2.60;99.90
4314;DHT22;2170;48.794;9.182;2024-01-30T07:28:17;2.60;99.90
4314;DHT22;2170;48.794;9.182;2024-01-30T07:30:48;2.60;99.90
4314;DHT22;2170;48.794;9.182;2024-01-30T07:33:16;2.60;99.90
4314;DHT22;2170;48.794;9.182;2024-01-30T07:35:47;2.90;99.90
4314;DHT22;2170;48.794;9.182;2024-01-30T07:38:18;2.70;99.90
4314;DHT22;2170;48.794;9.182;2024-01-30T07:40:46;2.70;99.90
4314;DHT22;2170;48.794;9.182;2024-01-30T07:43:17;2.70;99.90
4314;DHT22;2170;48.794;9.182;2024-01-30T07:45:52;2.70;99.90
4314;DHT22;2170;48.794;9.182;2024-01-30T07:48:21;3.00;99.90
4314;DHT22;2170;48.794;9.182;2024-01-30T07:50:51;2.80;99.90
4314;DHT22;2170;48.794;9.182;2024-01-30T07:53:23;2.80;99.90
4314;DHT22;2170;48.794;9.182;2024-01-30T07:55:51;2.80;99.90
4314;DHT22;2170;48.794;9.182;2024-01-30T07:58:21;2.90;99.90
4314;DHT22;2170;48.794;9.182;2024-01-30T08:00:54;2.90;99.90
4314;DHT22;2170;48.794;9.182;2024-01-30T08:03:40;3.00;99.90
4314;DHT22;2170;48.794;9.182;2024-01-30T08:06:16;3.10;99.90
4314;DHT22;2170;48.794;9.182;2024-01-30T08:08:47;3.20;99.90
4314;DHT22;2170;48.794;9.182;2024-01-30T08:11:19;3.30;99.90
4314;DHT22;2170;48.794;9.182;2024-01-30T08:13:55;3.40;99.90
4314;DHT22;2170;48.794;9.182;2024-01-30T08:16:25;3.50;99.90
4314;DHT22;2170;48.794;9.182;2024-01-30T08:19:01;3.30;99.90
4314;DHT22;2170;48.794;9.182;2024-01-30T08:21:33;3.80;99.90
4314;DHT22;2170;48.794;9.182;2024-01-30T08:24:08;3.60;99.90
4314;DHT22;2170;48.794;9.182;2024-01-30T08:26:48;4.10;99.90
4314;DHT22;2170;48.794;9.182;2024-01-30T08:29:20;4.20;99.90
4314;DHT22;2170;48.794;9.182;2024-01-30T08:31:52;4.10;99.90
4314;DHT22;2170;48.794;9.182;2024-01-30T08:34:26;4.60;99.90
4314;DHT22;2170;48.794;9.182;2024-01-30T08:36:56;4.50;99.90
4314;DHT22;2170;48.794;9.182;2024-01-30T08:39:35;5.00;99.90
4314;DHT22;2170;48.794;9.182;2024-01-30T08:42:20;5.20;99.90
4314;DHT22;2170;48.794;9.182;2024-01-30T08:45:26;5.40;99.90
4314;DHT22;2170;48.794;9.182;2024-01-30T08:48:17;5.70;99.90
4314;DHT22;2170;48.794;9.182;2024-01-30T08:51:00;5.90;99.90
4314;DHT22;2170;48.794;9.182;2024-01-30T08:53:44;6.10;99.90
4314;DHT22;2170;48.794;9.182;2024-01-30T08:56:25;6.20;99.90
4314;DHT22;2170;48.794;9.182;2024-01-30T08:59:03;6.10;99.90
4314;DHT22;2170;48.794;9.182;2024-01-30T09:01:40;6.00;99.90
4314;DHT22;2170;48.794;9.182;2024-01-30T09:04:19;6.00;99.90
4314;DHT22;2170;48.794;9.182;2024-01-30T09:06:56;6.00;99.90
4314;DHT22;2170;48.794;9.182;2024-01-30T09:09:41;5.90;99.90
4314;DHT22;2170;48.794;9.182;2024-01-30T09:12:16;5.90;99.90
4314;DHT22;2170;48.794;9.182;2024-01-30T09:14:59;6.30;99.90
4314;DHT22;2170;48.794;9.182;2024-01-30T09:17:29;6.60;99.90
4314;DHT22;2170;48.794;9.182;2024-01-30T09:19:58;6.90;99.90
4314;DHT22;2170;48.794;9.182;2024-01-30T09:22:26;7.20;99.90
4314;DHT22;2170;48.794;9.182;2024-01-30T09:24:55;7.40;99.90
4314;DHT22;2170;48.794;9.182;2024-01-30T09:27:37;7.40;99.90
4314;DHT22;2170;48.794;9.182;2024-01-30T09:30:08;7.40;99.90
4314;DHT22;2170;48.794;9.182;2024-01-30T09:32:39;7.30;99.90
4314;DHT22;2170;48.794;9.182;2024-01-30T09:35:11;7.70;99.90
4314;DHT22;2170;48.794;9.182;2024-01-30T09:37:42;8.00;99.90
4314;DHT22;2170;48.794;9.182;2024-01-30T09:40:11;8.30;99.90
4314;DHT22;2170;48.794;9.182;2024-01-30T09:42:40;8.50;99.90
4314;DHT22;2170;48.794;9.182;2024-01-30T09:45:11;8.90;99.90
4314;DHT22;2170;48.794;9.182;2024-01-30T09:47:54;9.20;99.90
4314;DHT22;2170;48.794;9.182;2024-01-30T09:50:32;8.90;99.90
4314;DHT22;2170;48.794;9.182;2024-01-30T09:53:34;8.80;99.90
4314;DHT22;2170;48.794;9.182;2024-01-30T09:56:07;9.00;99.90
4314;DHT22;2170;48.794;9.182;2024-01-30T09:58:44;9.20;99.90
4314;DHT22;2170;48.794;9.182;2024-01-30T10:01:23;9.10;99.90
4314;DHT22;2170;48.794;9.182;2024-01-30T10:03:56;9.10;99.90
4314;DHT22;2170;48.794;9.182;2024-01-30T10:06:25;9.40;99.90
4314;DHT22;2170;48.794;9.182;2024-01-30T10:08:56;9.50;99.90
4314;DHT22;2170;48.794;9.182;2024-01-30T10:11:28;9.70;99.90
4314;DHT22;2170;48.794;9.182;2024-01-30T10:14:23;9.80;99.90
4314;DHT22;2170;48.794;9.182;2024-01-30T10:17:01;9.50;99.90
4314;DHT22;2170;48.794;9.182;2024-01-30T10:19:41;9.30;99.90
4314;DHT22;2170;48.794;9.182;2024-01-30T10:22:10;9.60;99.90
4314;DHT22;2170;48.794;9.182;2024-01-30T10:24:42;9.70;99.90
4314;DHT22;2170;48.794;9.182;2024-01-30T10:27:13;9.70;99.90
4314;DHT22;2170;48.794;9.182;2024-01-30T10:29:54;9.70;99.90
4314;DHT22;2170;48.794;9.182;2024-01-30T10:32:30;9.80;99.90
4314;DHT22;2170;48.794;9.182;2024-01-30T10:34:59;10.00;99.90
4314;DHT22;2170;48.794;9.182;2024-01-30T10:37:31;9.70;99.90
4314;DHT22;2170;48.794;9.182;2024-01-30T10:40:04;9.70;99.90
4314;DHT22;2170;48.794;9.182;2024-01-30T10:42:37;9.60;99.90
4314;DHT22;2170;48.794;9.182;2024-01-30T10:45:19;9.80;99.90
4314;DHT22;2170;48.794;9.182;2024-01-30T10:47:54;9.70;99.90
4314;DHT22;2170;48.794;9.182;2024-01-30T10:50:29;10.00;99.90
4314;DHT22;2170;48.794;9.182;2024-01-30T10:53:04;9.70;99.90
4314;DHT22;2170;48.794;9.182;2024-01-30T10:55:37;9.60;99.90
4314;DHT22;2170;48.794;9.182;2024-01-30T10:58:09;9.80;99.90
4314;DHT22;2170;48.794;9.182;2024-01-30T11:00:39;9.90;99.90
4314;DHT22;2170;48.794;9.182;2024-01-30T11:03:09;9.80;99.90
4314;DHT22;2170;48.794;9.182;2024-01-30T11:05:40;9.80;99.90
4314;DHT22;2170;48.794;9.182;2024-01-30T11:08:12;9.90;99.90
4314;DHT22;2170;48.794;9.182;2024-01-30T11:10:49;9.80;99.90
4314;DHT22;2170;48.794;9.182;2024-01-30T11:13:19;10.00;99.90
4314;DHT22;2170;48.794;9.182;2024-01-30T11:15:48;10.10;99.90
4314;DHT22;2170;48.794;9.182;2024-01-30T11:18:28;10.30;99.90
4314;DHT22;2170;48.794;9.182;2024-01-30T11:21:00;10.30;99.90
4314;DHT22;2170;48.794;9.182;2024-01-30T11:23:33;10.60;99.90
4314;DHT22;2170;48.794;9.182;2024-01-30T11:26:08;10.20;99.90
4314;DHT22;2170;48.794;9.182;2024-01-30T11:28:56;10.40;99.90
4314;DHT22;2170;48.794;9.182;2024-01-30T11:31:31;10.50;99.90
4314;DHT22;2170;48.794;9.182;2024-01-30T11:34:01;10.60;99.90
4314;DHT22;2170;48.794;9.182;2024-01-30T11:36:35;10.50;99.90
4314;DHT22;2170;48.794;9.182;2024-01-30T11:39:04;10.50;99.90
4314;DHT22;2170;48.794;9.182;2024-01-30T11:41:33;10.40;99.90
4314;DHT22;2170;48.794;9.182;2024-01-30T11:44:12;10.50;99.90
4314;DHT22;2170;48.794;9.182;2024-01-30T11:46:46;10.50;99.90
4314;DHT22;2170;48.794;9.182;2024-01-30T11:49:18;10.70;99.90
4314;DHT22;2170;48.794;9.182;2024-01-30T11:51:53;10.70;99.90
4314;DHT22;2170;48.794;9.182;2024-01-30T11:54:24;10.70;99.90
4314;DHT22;2170;48.794;9.182;2024-01-30T11:56:52;10.80;99.90
4314;DHT22;2170;48.794;9.182;2024-01-30T11:59:25;10.70;99.90
4314;DHT22;2170;48.794;9.182;2024-01-30T12:01:57;10.80;99.90
4314;DHT22;2170;48.794;9.182;2024-01-30T12:04:28;10.90;99.90
4314;DHT22;2170;48.794;9.182;2024-01-30T12:06:59;11.00;99.90
4314;DHT22;2170;48.794;9.182;2024-01-30T12:09:37;11.00;99.90
4314;DHT22;2170;48.794;9.182;2024-01-30T12:12:09;10.60;99.90
4314;DHT22;2170;48.794;9.182;2024-01-30T12:14:41;10.80;99.90
4314;DHT22;2170;48.794;9.182;2024-01-30T12:17:27;10.80;99.90
4314;DHT22;2170;48.794;9.182;2024-01-30T12:20:10;11.00;99.90
4314;DHT22;2170;48.794;9.182;2024-01-30T12:22:47;11.00;99.90
4314;DHT22;2170;48.794;9.182;2024-01-30T12:25:36;11.10;99.90
4314;DHT22;2170;48.794;9.182;2024-01-30T12:28:28;11.40;99.90
4314;DHT22;2170;48.794;9.182;2024-01-30T12:31:04;11.20;99.90
4314;DHT22;2170;48.794;9.182;2024-01-30T12:36:19;11.20;99.90
4314;DHT22;2170;48.794;9.182;2024-01-30T12:38:59;11.20;99.90
4314;DHT22;2170;48.794;9.182;2024-01-30T12:41:31;11.10;99.90
4314;DHT22;2170;48.794;9.182;2024-01-30T12:44:17;11.20;99.90
4314;DHT22;2170;48.794;9.182;2024-01-30T12:46:54;11.30;99.90
4314;DHT22;2170;48.794;9.182;2024-01-30T12:49:28;11.50;99.90
4314;DHT22;2170;48.794;9.182;2024-01-30T12:52:01;11.50;99.90
4314;DHT22;2170;48.794;9.182;2024-01-30T12:54:38;11.50;99.90
4314;DHT22;2170;48.794;9.182;2024-01-30T12:57:10;11.60;99.90
4314;DHT22;2170;48.794;9.182;2024-01-30T12:59:45;11.70;99.90
4314;DHT22;2170;48.794;9.182;2024-01-30T13:02:17;11.60;99.90
4314;DHT22;2170;48.794;9.182;2024-01-30T13:04:45;11.70;99.90
4314;DHT22;2170;48.794;9.182;2024-01-30T13:07:20;11.80;99.90
4314;DHT22;2170;48.794;9.182;2024-01-30T13:09:52;12.00;99.90
4314;DHT22;2170;48.794;9.182;2024-01-30T13:12:30;11.90;99.90
4314;DHT22;2170;48.794;9.182;2024-01-30T13:15:11;11.90;99.90
4314;DHT22;2170;48.794;9.182;2024-01-30T13:18:00;12.00;99.90
4314;DHT22;2170;48.794;9.182;2024-01-30T13:20:41;12.20;99.90
4314;DHT22;2170;48.794;9.182;2024-01-30T13:23:13;12.20;99.90
4314;DHT22;2170;48.794;9.182;2024-01-30T13:25:46;12.60;99.90
4314;DHT22;2170;48.794;9.182;2024-01-30T13:28:17;13.00;99.90
4314;DHT22;2170;48.794;9.182;2024-01-30T13:30:59;13.00;99.90
4314;DHT22;2170;48.794;9.182;2024-01-30T13:33:29;13.00;99.90
4314;DHT22;2170;48.794;9.182;2024-01-30T13:36:09;13.00;99.90
4314;DHT22;2170;48.794;9.182;2024-01-30T13:38:46;13.00;99.90
4314;DHT22;2170;48.794;9.182;2024-01-30T13:41:19;13.00;99.90
4314;DHT22;2170;48.794;9.182;2024-01-30T13:43:57;13.00;99.90
4314;DHT22;2170;48.794;9.182;2024-01-30T13:46:29;13.00;99.90
4314;DHT22;2170;48.794;9.182;2024-01-30T13:49:00;13.00;99.90
4314;DHT22;2170;48.794;9.182;2024-01-30T13:51:36;13.00;99.90
4314;DHT22;2170;48.794;9.182;2024-01-30T13:54:10;13.00;99.90
4314;DHT22;2170;48.794;9.182;2024-01-30T13:56:45;13.00;99.90
4314;DHT22;2170;48.794;9.182;2024-01-30T13:59:14;13.00;99.90
4314;DHT22;2170;48.794;9.182;2024-01-30T14:01:51;12.70;99.90
4314;DHT22;2170;48.794;9.182;2024-01-30T14:04:32;13.00;99.90
4314;DHT22;2170;48.794;9.182;2024-01-30T14:07:09;12.90;99.90
4314;DHT22;2170;48.794;9.182;2024-01-30T14:09:49;12.90;99.90
4314;DHT22;2170;48.794;9.182;2024-01-30T14:12:29;13.00;99.90
4314;DHT22;2170;48.794;9.182;2024-01-30T14:14:58;12.90;99.90
4314;DHT22;2170;48.794;9.182;2024-01-30T14:17:34;12.90;99.90
4314;DHT22;2170;48.794;9.182;2024-01-30T14:20:03;12.90;99.90
4314;DHT22;2170;48.794;9.182;2024-01-30T14:22:38;12.90;99.90
4314;DHT22;2170;48.794;9.182;2024-01-30T14:25:11;12.90;99.90
4314;DHT22;2170;48.794;9.182;2024-01-30T14:27:46;13.10;99.90
4314;DHT22;2170;48.794;9.182;2024-01-30T14:30:34;13.00;99.90
4314;DHT22;2170;48.794;9.182;2024-01-30T14:33:03;12.80;99.90
4314;DHT22;2170;48.794;9.182;2024-01-30T14:35:30;12.80;99.90
4314;DHT22;2170;48.794;9.182;2024-01-30T14:38:01;12.80;99.90
4314;DHT22;2170;48.794;9.182;2024-01-30T14:40:30;12.80;99.90
4314;DHT22;2170;48.794;9.182;2024-01-30T14:43:03;12.90;99.90
4314;DHT22;2170;48.794;9.182;2024-01-30T14:45:42;12.70;99.90
4314;DHT22;2170;48.794;9.182;2024-01-30T14:48:19;12.70;99.90
4314;DHT22;2170;48.794;9.182;2024-01-30T14:50:47;12.60;99.90
4314;DHT22;2170;48.794;9.182;2024-01-30T14:53:27;12.70;99.90
4314;DHT22;2170;48.794;9.182;2024-01-30T14:55:57;12.90;99.90
4314;DHT22;2170;48.794;9.182;2024-01-30T14:58:26;12.60;99.90
4314;DHT22;2170;48.794;9.182;2024-01-30T15:00:55;12.60;99.90
4314;DHT22;2170;48.794;9.182;2024-01-30T15:03:26;12.50;99.90
4314;DHT22;2170;48.794;9.182;2024-01-30T15:05:58;12.50;99.90
4314;DHT22;2170;48.794;9.182;2024-01-30T15:08:34;12.40;99.90
4314;DHT22;2170;48.794;9.182;2024-01-30T15:11:04;12.60;99.90
4314;DHT22;2170;48.794;9.182;2024-01-30T15:13:34;12.40;99.90
4314;DHT22;2170;48.794;9.182;2024-01-30T15:16:03;12.40;99.90
4314;DHT22;2170;48.794;9.182;2024-01-30T15:18:36;12.40;99.90
4314;DHT22;2170;48.794;9.182;2024-01-30T15:21:06;12.30;99.90
4314;DHT22;2170;48.794;9.182;2024-01-30T15:23:36;12.30;99.90
4314;DHT22;2170;48.794;9.182;2024-01-30T15:26:04;12.50;99.90
4314;DHT22;2170;48.794;9.182;2024-01-30T15:28:38;12.20;99.90
4314;DHT22;2170;48.794;9.182;2024-01-30T15:31:06;12.10;99.90
4314;DHT22;2170;48.794;9.182;2024-01-30T15:33:33;12.10;99.90
4314;DHT22;2170;48.794;9.182;2024-01-30T15:36:03;12.00;99.90
4314;DHT22;2170;48.794;9.182;2024-01-30T15:38:31;12.00;99.90
4314;DHT22;2170;48.794;9.182;2024-01-30T15:40:58;11.90;99.90
4314;DHT22;2170;48.794;9.182;2024-01-30T15:43:29;12.00;99.90
4314;DHT22;2170;48.794;9.182;2024-01-30T15:46:01;11.70;99.90
4314;DHT22;2170;48.794;9.182;2024-01-30T15:48:30;11.80;99.90
4314;DHT22;2170;48.794;9.182;2024-01-30T15:50:59;11.70;99.90
4314;DHT22;2170;48.794;9.182;2024-01-30T15:53:28;11.80;99.90
4314;DHT22;2170;48.794;9.182;2024-01-30T15:55:55;11.60;99.90
4314;DHT22;2170;48.794;9.182;2024-01-30T15:58:25;11.50;99.90
4314;DHT22;2170;48.794;9.182;2024-01-30T16:00:53;11.70;99.90
4314;DHT22;2170;48.794;9.182;2024-01-30T16:03:25;11.40;99.90
4314;DHT22;2170;48.794;9.182;2024-01-30T16:05:52;11.40;99.90
4314;DHT22;2170;48.794;9.182;2024-01-30T16:08:21;11.40;99.90
4314;DHT22;2170;48.794;9.182;2024-01-30T16:13:25;11.40;99.90
4314;DHT22;2170;48.794;9.182;2024-01-30T16:15:53;11.30;99.90
4314;DHT22;2170;48.794;9.182;2024-01-30T16:18:24;11.20;99.90
4314;DHT22;2170;48.794;9.182;2024-01-30T16:20:56;11.40;99.90
4314;DHT22;2170;48.794;9.182;2024-01-30T16:23:24;11.20;99.90
4314;DHT22;2170;48.794;9.182;2024-01-30T16:25:56;11.10;99.90
4314;DHT22;2170;48.794;9.182;2024-01-30T16:28:27;11.00;99.90
4314;DHT22;2170;48.794;9.182;2024-01-30T16:30:57;11.00;99.90
4314;DHT22;2170;48.794;9.182;2024-01-30T16:33:27;10.90;99.90
4314;DHT22;2170;48.794;9.182;2024-01-30T16:35:55;10.90;99.90
4314;DHT22;2170;48.794;9.182;2024-01-30T16:38:22;11.10;99.90
4314;DHT22;2170;48.794;9.182;2024-01-30T16:40:51;10.80;99.90
4314;DHT22;2170;48.794;9.182;2024-01-30T16:43:23;10.70;99.90
4314;DHT22;2170;48.794;9.182;2024-01-30T16:45:54;10.70;99.90
4314;DHT22;2170;48.794;9.182;2024-01-30T16:48:24;10.60;99.90
4314;DHT22;2170;48.794;9.182;2024-01-30T16:50:55;10.60;99.90
4314;DHT22;2170;48.794;9.182;2024-01-30T16:53:23;10.60;99.90
4314;DHT22;2170;48.794;9.182;2024-01-30T16:55:50;10.60;99.90